Why insider trading matters?

Insiders might sell their shares for any number of reasons, but they buy them for only one: they think the price will rise.

- Peter Lynch
TEMPLETON GLOBAL INCOME FUND (GIM)
Sector: Financial Services; Industry: Asset Management

Templeton Global Income Fund is a closed-ended fixed income mutual fund launched by Franklin Resources, Inc. It is managed by Franklin Advisers, Inc. The fund invests in fixed income markets across the globe. It primarily invests in government bonds.


Trade Date Insider Title Buy/Sell #Shares Price Value Option
2022-08-04 Saba Capital Management, L.P. 10%-Owner Buy 98,128 $4.72 $462,690 No
2022-08-02 FRANKLIN RESOURCES INC Affiliate of Investment Adv. Buy 205,550 $4.69 $964,084 No
2022-08-01 Saba Capital Management, L.P. 10%-Owner Buy 40,930 $4.62 $189,097 No
2022-07-29 Saba Capital Management, L.P. 10%-Owner Buy 105,589 $4.54 $479,781 No
2022-07-29 FRANKLIN RESOURCES INC Affiliate of Investment Adv. Buy 178,861 $4.53 $809,625 No
2022-07-27 FRANKLIN RESOURCES INC Affiliate of Investment Adv. Buy 252,120 $4.38 $1,104,708 No
2022-07-25 FRANKLIN RESOURCES INC Affiliate of Investment Adv. Buy 193,249 $4.44 $857,792 No
2022-07-20 Saba Capital Management, L.P. 10%-Owner Buy 1,600 $4.34 $6,944 No
2022-07-15 Saba Capital Management, L.P. 10%-Owner Buy 119,961 $4.30 $515,832 No
2022-07-15 FRANKLIN RESOURCES INC Affiliate of Investment Adv. Buy 113,000 $4.39 $496,081 No
2022-07-14 Saba Capital Management, L.P. 10%-Owner Buy 1,287,565 $4.40 $5,669,198 No
2022-07-13 FRANKLIN RESOURCES INC Affiliate of Investment Adv. Buy 110,548 $4.35 $481,322 No
2022-07-11 Saba Capital Management, L.P. 10%-Owner Buy 50,511 $4.31 $217,754 No
2022-07-11 Saba Capital Management, L.P. 10%-Owner Buy 50,511 $4.31 $217,754 No
2022-07-11 FRANKLIN RESOURCES INC Affiliate of Investment Adv. Buy 93,286 $4.36 $406,568 No
2022-07-07 FRANKLIN RESOURCES INC Affiliate of Investment Adv. Buy 84,672 $4.46 $377,249 No
2022-07-05 FRANKLIN RESOURCES INC Affiliate of Investment Adv. Buy 93,166 $4.48 $417,022 No
2022-07-01 Saba Capital Management, L.P. 10%-Owner Buy 9,363 $4.46 $41,759 No
2022-06-30 Saba Capital Management, L.P. 10%-Owner Buy 290,490 $4.43 $1,286,792 No
2022-06-22 Saba Capital Management, L.P. 10%-Owner Buy 129,531 $4.30 $556,507 No
2021-09-16 Saba Capital Management, L.P. 10%-Owner Buy 140,332 $5.48 $768,625 No
2021-09-13 Saba Capital Management, L.P. 10%-Owner Buy 148,966 $5.51 $820,803 No
2021-07-09 Saba Capital Management, L.P. 10%-Owner Buy 270,207 $5.57 $1,504,483 No
2021-06-25 Saba Capital Management, L.P. 10%-Owner Buy 109,336 $5.57 $609,444 No
2021-06-23 Saba Capital Management, L.P. 10%-Owner Buy 14,649 $5.55 $81,302 No
2021-06-08 Saba Capital Management, L.P. 10%-Owner Buy 52,628 $5.63 $296,296 No
2021-05-25 Saba Capital Management, L.P. 10%-Owner Buy 54,964 $5.55 $305,122 No
2021-05-20 Saba Capital Management, L.P. 10%-Owner Buy 50,000 $5.54 $277,000 No
2021-05-17 Saba Capital Management, L.P. 10%-Owner Buy 154,507 $5.52 $852,893 No
2021-05-12 Saba Capital Management, L.P. 10%-Owner Buy 93,638 $5.51 $515,945 No

Insider Smart

Mohawk Group Holdings, Inc. (MWK) - Multiple insiders bought MWK in June around $5, stock moved sideways for a month then made a 60% jump in 10 days. Patience is the key.

Insider Smart

PENN NATIONAL GAMING INC (PENN) - PENN took a deep dive from $36 to $5 due to the crash, anyone who was bold enough to pick up some shares in March or April could have made a 900% profit in 2 months. But bottom fishing is always easier said than done, if one took a safer bet and followed multiple insider buying around $18, a 100% profit is still impressive.